Time;durP1;ratioP1;P1;durP2;ratioP2;P2;SDS_P1;SDS_P2;PMS_P1;PMS_P2;Temp;Humidity;BMP_temperature;BMP_pressure;BME280_temperature;BME280_humidity;BME280_pressure;Samples;Min_cycle;Max_cycle;Signal;HPM_P1;HPM_P2
2022/10/28 00:02:21;;;;;;;6.72;3.10;;;15.10;99.90;;;;;;4955633;29;20391;-65
2022/10/28 00:04:46;;;;;;;4.63;2.88;;;15.10;99.90;;;;;;4955655;29;20364;-65
2022/10/28 00:07:12;;;;;;;8.48;3.00;;;15.00;99.90;;;;;;4955644;29;20474;-66
2022/10/28 00:09:38;;;;;;;5.75;2.85;;;15.00;99.90;;;;;;4955700;29;20479;-67
2022/10/28 00:12:03;;;;;;;4.43;2.63;;;15.00;99.90;;;;;;4938355;29;20051;-67
2022/10/28 00:14:29;;;;;;;4.50;2.88;;;15.00;99.90;;;;;;4955537;29;20043;-67
2022/10/28 00:16:55;;;;;;;5.30;2.65;;;15.00;99.90;;;;;;4955579;29;20047;-67
2022/10/28 00:19:20;;;;;;;7.25;3.50;;;15.10;99.90;;;;;;4955531;29;20498;-67
2022/10/28 00:21:46;;;;;;;4.20;2.33;;;15.10;99.90;;;;;;4955361;29;20398;-67
2022/10/28 00:24:13;;;;;;;5.63;3.05;;;15.20;99.90;;;;;;4955383;29;20506;-67
2022/10/28 00:26:43;;;;;;;5.28;3.15;;;15.20;99.90;;;;;;4937956;29;20047;-67
2022/10/28 00:29:13;;;;;;;8.93;4.75;;;15.10;99.90;;;;;;4955498;29;20070;-67
2022/10/28 00:31:39;;;;;;;6.03;3.15;;;15.20;99.90;;;;;;4955037;28;20519;-67
2022/10/28 00:34:08;;;;;;;6.57;2.97;;;15.20;99.90;;;;;;4955451;29;20102;-67
2022/10/28 00:36:36;;;;;;;5.05;3.10;;;15.20;99.90;;;;;;4955283;29;20054;-67
2022/10/28 00:39:09;;;;;;;6.25;3.25;;;15.30;99.90;;;;;;4937901;29;20047;-67
2022/10/28 00:41:36;;;;;;;5.93;3.55;;;15.30;99.90;;;;;;4955312;29;20094;-67
2022/10/28 00:44:39;;;;;;;7.10;3.35;;;15.30;99.90;;;;;;4955362;29;20035;-67
2022/10/28 00:47:16;;;;;;;10.15;3.95;;;15.30;99.90;;;;;;4955236;29;20113;-67
2022/10/28 00:49:43;;;;;;;9.57;3.00;;;15.30;99.90;;;;;;4955303;29;20039;-67
2022/10/28 00:52:15;;;;;;;8.48;3.42;;;15.20;99.90;;;;;;4955318;29;20039;-66
2022/10/28 00:54:42;;;;;;;6.38;3.45;;;15.30;99.90;;;;;;4955240;29;20043;-67
2022/10/28 00:57:12;;;;;;;6.25;3.25;;;15.30;99.90;;;;;;4954927;29;20054;-67
2022/10/28 00:59:41;;;;;;;6.70;3.00;;;15.30;99.90;;;;;;4955127;29;20040;-66
2022/10/28 01:02:07;;;;;;;5.63;3.00;;;15.20;99.90;;;;;;4954811;29;20079;-67
2022/10/28 01:04:33;;;;;;;5.93;3.97;;;15.30;99.90;;;;;;4955124;29;20082;-67
2022/10/28 01:07:01;;;;;;;7.80;3.45;;;15.20;99.90;;;;;;4937970;29;20055;-67
2022/10/28 01:09:27;;;;;;;8.43;3.15;;;15.30;99.90;;;;;;4937891;29;20447;-67
2022/10/28 01:12:17;;;;;;;9.75;3.33;;;15.20;99.90;;;;;;4954761;29;20078;-67
2022/10/28 01:15:03;;;;;;;7.17;3.17;;;15.20;99.90;;;;;;4955074;29;20114;-68
2022/10/28 01:17:38;;;;;;;7.03;3.78;;;15.10;99.90;;;;;;4955057;29;20330;-65
2022/10/28 01:20:31;;;;;;;4.43;3.20;;;15.10;99.90;;;;;;4937876;29;20047;-65
2022/10/28 01:23:05;;;;;;;5.10;3.47;;;15.00;99.90;;;;;;4955013;29;20075;-65
2022/10/28 01:25:57;;;;;;;10.20;3.88;;;15.00;99.90;;;;;;4954943;29;20047;-65
2022/10/28 01:28:51;;;;;;;7.82;3.25;;;14.90;99.90;;;;;;4954842;29;20055;-65
2022/10/28 01:31:22;;;;;;;6.25;3.53;;;14.90;99.90;;;;;;4954731;29;20050;-66
2022/10/28 01:34:06;;;;;;;5.85;3.15;;;14.80;99.90;;;;;;4954885;29;20139;-66
2022/10/28 01:37:10;;;;;;;6.28;3.92;;;14.80;99.90;;;;;;4937223;29;20043;-66
2022/10/28 01:39:53;;;;;;;7.13;3.60;;;14.70;99.90;;;;;;4944025;29;20075;-66
2022/10/28 01:42:21;;;;;;;6.55;3.60;;;14.70;99.90;;;;;;4954521;29;20048;-66
2022/10/28 01:45:11;;;;;;;5.72;2.90;;;14.60;99.90;;;;;;4954479;29;20050;-66
2022/10/28 01:47:51;;;;;;;7.28;3.45;;;14.60;99.90;;;;;;4956027;28;20056;-66
2022/10/28 01:50:29;;;;;;;6.77;3.80;;;14.60;99.90;;;;;;4958234;29;20035;-67
2022/10/28 01:53:00;;;;;;;8.70;3.90;;;14.60;99.90;;;;;;4958159;29;20093;-66
2022/10/28 01:55:29;;;;;;;6.20;3.10;;;14.60;99.90;;;;;;4958156;29;20136;-67
2022/10/28 01:57:58;;;;;;;5.97;3.53;;;14.60;99.90;;;;;;4958038;29;20043;-66
2022/10/28 02:00:25;;;;;;;7.28;3.45;;;14.50;99.90;;;;;;4958090;29;20098;-66
2022/10/28 02:02:51;;;;;;;7.85;4.20;;;14.50;99.90;;;;;;4957742;29;20122;-66
2022/10/28 02:05:38;;;;;;;8.65;3.45;;;14.50;99.90;;;;;;4957971;29;20042;-66
2022/10/28 02:08:22;;;;;;;9.05;4.30;;;14.50;99.90;;;;;;4957838;29;20097;-66
2022/10/28 02:10:56;;;;;;;8.05;3.53;;;14.50;99.90;;;;;;4957833;29;20047;-66
2022/10/28 02:13:39;;;;;;;5.18;3.30;;;14.40;99.90;;;;;;4957845;29;20082;-70
2022/10/28 02:16:24;;;;;;;9.18;4.55;;;14.40;99.90;;;;;;4957704;29;20067;-66
2022/10/28 02:19:17;;;;;;;8.55;4.25;;;14.30;99.90;;;;;;4957715;29;20397;-66
2022/10/28 02:22:06;;;;;;;7.45;3.67;;;14.30;99.90;;;;;;4957361;29;20082;-66
2022/10/28 02:24:54;;;;;;;13.27;3.88;;;14.20;99.90;;;;;;4957599;29;20049;-67
2022/10/28 02:27:29;;;;;;;8.75;4.13;;;14.20;99.90;;;;;;4957171;29;20058;-66
2022/10/28 02:30:10;;;;;;;9.95;4.00;;;14.10;99.90;;;;;;4957487;29;20043;-66
2022/10/28 02:32:44;;;;;;;5.72;2.97;;;14.10;99.90;;;;;;4957058;29;20059;-69
2022/10/28 02:35:16;;;;;;;7.18;3.67;;;14.00;99.90;;;;;;4957450;29;20047;-67
2022/10/28 02:37:46;;;;;;;6.13;3.78;;;14.00;99.90;;;;;;4940154;29;20047;-67
2022/10/28 02:40:18;;;;;;;8.80;3.38;;;13.90;99.90;;;;;;4957394;29;20181;-67
2022/10/28 02:42:47;;;;;;;;;;;13.90;99.90;;;;;;4957625;29;20043;-66
2022/10/28 02:45:17;;;;;;;10.98;4.13;;;13.90;99.90;;;;;;4957226;29;19922;-66
2022/10/28 02:47:50;;;;;;;7.43;3.80;;;13.80;99.90;;;;;;4957104;29;20081;-66
2022/10/28 02:50:20;;;;;;;6.07;3.22;;;13.80;99.90;;;;;;4957168;29;20043;-66
2022/10/28 02:52:50;;;;;;;6.93;3.65;;;13.80;99.90;;;;;;4956859;29;20043;-66
2022/10/28 02:55:18;;;;;;;10.03;3.80;;;13.80;99.90;;;;;;4956801;29;20075;-65
2022/10/28 02:57:48;;;;;;;11.05;3.80;;;13.70;99.90;;;;;;4939491;29;20314;-66
2022/10/28 03:00:21;;;;;;;6.13;3.40;;;13.70;99.90;;;;;;4938421;29;20134;-66
2022/10/28 03:02:46;;;;;;;8.40;4.13;;;13.70;99.90;;;;;;4939375;29;20102;-66
2022/10/28 03:05:13;;;;;;;8.40;4.00;;;13.60;99.90;;;;;;4939528;29;20039;-66
2022/10/28 03:07:39;;;;;;;7.43;3.13;;;13.60;99.90;;;;;;4923540;29;20067;-66
2022/10/28 03:10:05;;;;;;;7.43;3.85;;;13.60;99.90;;;;;;4956751;29;20424;-66
2022/10/28 03:12:30;;;;;;;7.03;3.80;;;13.60;99.90;;;;;;4956725;29;20039;-67
2022/10/28 03:14:56;;;;;;;9.50;3.70;;;13.50;99.90;;;;;;4956352;29;20106;-66
2022/10/28 03:17:22;;;;;;;6.65;3.50;;;13.50;99.90;;;;;;4956415;29;20138;-66
2022/10/28 03:19:47;;;;;;;7.13;3.75;;;13.50;99.90;;;;;;4939200;29;20039;-66
2022/10/28 03:22:13;;;;;;;7.32;3.70;;;13.50;99.90;;;;;;4956568;29;20102;-66
2022/10/28 03:24:39;;;;;;;6.70;3.80;;;13.40;99.90;;;;;;4956203;29;20047;-66
2022/10/28 03:27:04;;;;;;;7.13;3.63;;;13.40;99.90;;;;;;4956130;29;20047;-66
2022/10/28 03:29:30;;;;;;;10.05;4.13;;;13.40;99.90;;;;;;4956445;29;20036;-66
2022/10/28 03:31:56;;;;;;;7.68;3.45;;;13.40;99.90;;;;;;4956202;29;20091;-66
2022/10/28 03:34:21;;;;;;;10.85;3.70;;;13.40;99.90;;;;;;4956340;29;20047;-66
2022/10/28 03:36:47;;;;;;;6.88;3.85;;;13.40;99.90;;;;;;4956267;29;20039;-66
2022/10/28 03:39:12;;;;;;;7.88;3.55;;;13.80;99.90;;;;;;4956302;29;20047;-66
2022/10/28 03:41:38;;;;;;;5.38;3.53;;;13.40;99.90;;;;;;4955889;29;20035;-66
2022/10/28 03:44:04;;;;;;;6.55;3.40;;;13.40;99.90;;;;;;4956143;29;20039;-65
2022/10/28 03:46:29;;;;;;;8.20;3.67;;;13.40;99.90;;;;;;4938681;29;20067;-67
2022/10/28 03:48:55;;;;;;;7.95;3.78;;;13.30;99.90;;;;;;4938584;29;20043;-66
2022/10/28 03:51:21;;;;;;;9.85;4.15;;;13.30;99.90;;;;;;4956069;29;20498;-66
2022/10/28 03:53:46;;;;;;;8.43;3.60;;;13.30;99.90;;;;;;4955999;29;20067;-66
2022/10/28 03:56:12;;;;;;;8.40;4.30;;;13.20;99.90;;;;;;4955991;29;20043;-66
2022/10/28 03:58:38;;;;;;;6.30;3.25;;;13.20;99.90;;;;;;4955590;29;20043;-66
2022/10/28 04:01:03;;;;;;;5.85;3.40;;;13.20;99.90;;;;;;4955807;29;20046;-66
2022/10/28 04:03:29;;;;;;;5.85;3.42;;;13.10;99.90;;;;;;4955847;29;20046;-67
2022/10/28 04:05:55;;;;;;;5.75;4.03;;;13.10;99.90;;;;;;4955712;29;20440;-66
2022/10/28 04:08:21;;;;;;;9.90;4.28;;;13.00;99.90;;;;;;4955755;29;20047;-66
2022/10/28 04:10:47;;;;;;;6.40;3.72;;;13.00;99.90;;;;;;4955155;28;20487;-66
2022/10/28 04:13:13;;;;;;;7.35;3.97;;;13.00;99.90;;;;;;4938568;29;20039;-66
2022/10/28 04:15:38;;;;;;;7.90;3.83;;;12.90;99.90;;;;;;4938253;29;20051;-66
2022/10/28 04:18:04;;;;;;;8.32;3.72;;;13.00;99.90;;;;;;4955664;29;20046;-66
2022/10/28 04:20:30;;;;;;;9.85;3.92;;;12.90;99.90;;;;;;4938289;29;20042;-66
2022/10/28 04:22:56;;;;;;;12.60;4.43;;;12.90;99.90;;;;;;4955259;29;20540;-66
2022/10/28 04:25:23;;;;;;;6.18;3.67;;;12.90;99.90;;;;;;4938604;29;20428;-66
2022/10/28 04:27:49;;;;;;;8.10;4.55;;;12.90;99.90;;;;;;4955485;29;20487;-66
2022/10/28 04:30:15;;;;;;;6.30;3.58;;;12.80;99.90;;;;;;4955471;29;20126;-66
2022/10/28 04:32:42;;;;;;;6.50;3.97;;;12.80;99.90;;;;;;4955174;29;20054;-66
2022/10/28 04:35:08;;;;;;;6.43;3.65;;;12.80;99.90;;;;;;4955434;29;20047;-67
2022/10/28 04:37:34;;;;;;;6.22;3.70;;;12.80;99.90;;;;;;4955363;29;20522;-66
2022/10/28 04:39:59;;;;;;;6.45;3.85;;;12.80;99.90;;;;;;4955167;29;20039;-65
2022/10/28 04:42:26;;;;;;;8.32;4.00;;;12.80;99.90;;;;;;4955299;29;20475;-66
2022/10/28 04:44:51;;;;;;;8.60;4.20;;;12.80;99.90;;;;;;4955388;29;20122;-66
2022/10/28 04:47:17;;;;;;;9.48;4.18;;;12.80;99.90;;;;;;4954948;29;20554;-67
2022/10/28 04:49:43;;;;;;;5.68;3.70;;;12.80;99.90;;;;;;4955006;29;20043;-66
2022/10/28 04:52:09;;;;;;;6.35;3.65;;;12.80;99.90;;;;;;4922052;29;20043;-66
2022/10/28 04:54:35;;;;;;;7.47;4.00;;;12.80;99.90;;;;;;4954952;29;20051;-65
2022/10/28 04:57:01;;;;;;;5.82;3.30;;;12.80;99.90;;;;;;4954944;29;20043;-66
2022/10/28 04:59:27;;;;;;;6.43;4.35;;;12.80;99.90;;;;;;4922387;29;20122;-66
2022/10/28 05:01:52;;;;;;;6.53;4.00;;;12.80;99.90;;;;;;4954909;29;20102;-66
2022/10/28 05:04:18;;;;;;;9.20;4.32;;;12.70;99.90;;;;;;4955227;29;20039;-65
2022/10/28 05:06:44;;;;;;;6.40;4.10;;;12.70;99.90;;;;;;4954708;29;20074;-66
2022/10/28 05:09:09;;;;;;;7.50;4.55;;;12.70;99.90;;;;;;4955146;29;20122;-66
2022/10/28 05:11:35;;;;;;;6.95;3.90;;;13.00;99.90;;;;;;4955082;29;20067;-66
2022/10/28 05:14:01;;;;;;;6.25;3.85;;;12.70;99.90;;;;;;4954853;29;20091;-67
2022/10/28 05:16:26;;;;;;;8.95;4.30;;;12.60;99.90;;;;;;4955057;29;20079;-66
2022/10/28 05:18:52;;;;;;;8.95;4.53;;;12.60;99.90;;;;;;4954804;29;20075;-66
2022/10/28 05:21:18;;;;;;;7.65;3.83;;;12.60;99.90;;;;;;4955104;28;20052;-67
2022/10/28 05:23:43;;;;;;;8.18;3.35;;;12.60;99.90;;;;;;4940538;29;20049;-65
2022/10/28 05:26:09;;;;;;;6.43;3.80;;;12.50;99.90;;;;;;4941162;29;20047;-66
2022/10/28 05:28:35;;;;;;;5.32;3.35;;;12.50;99.90;;;;;;4958520;29;20043;-66
2022/10/28 05:31:01;;;;;;;9.48;3.63;;;12.50;99.90;;;;;;4958310;29;20039;-66
2022/10/28 05:33:26;;;;;;;8.68;3.72;;;12.50;99.90;;;;;;4940894;29;20098;-65
2022/10/28 05:35:52;;;;;;;7.40;3.60;;;12.50;99.90;;;;;;4958238;29;20054;-68
2022/10/28 05:38:18;;;;;;;7.25;4.32;;;12.50;99.90;;;;;;4958513;29;20057;-66
2022/10/28 05:40:43;;;;;;;10.18;4.07;;;12.50;99.90;;;;;;4941314;29;20043;-65
2022/10/28 05:43:10;;;;;;;6.75;3.60;;;12.50;99.90;;;;;;4958204;29;20050;-65
2022/10/28 05:45:35;;;;;;;7.45;3.67;;;12.40;99.90;;;;;;4941085;29;20407;-65
2022/10/28 05:48:01;;;;;;;8.00;3.30;;;12.40;99.90;;;;;;4958235;29;20046;-65
2022/10/28 05:50:27;;;;;;;5.75;3.67;;;12.40;99.90;;;;;;4941099;29;20491;-66
2022/10/28 05:52:55;;;;;;;9.38;3.78;;;12.40;99.90;;;;;;4958213;29;20123;-65
2022/10/28 05:55:23;;;;;;;7.45;3.72;;;12.40;99.90;;;;;;4957923;29;20071;-65
2022/10/28 05:57:51;;;;;;;6.78;4.03;;;12.40;99.90;;;;;;4958127;29;20071;-65
2022/10/28 06:00:19;;;;;;;8.30;4.00;;;12.40;99.90;;;;;;4958063;29;20122;-68
2022/10/28 06:02:45;;;;;;;8.85;3.65;;;12.40;99.90;;;;;;4940566;29;20095;-65
2022/10/28 06:05:11;;;;;;;5.93;4.10;;;12.30;99.90;;;;;;4957782;29;20083;-66
2022/10/28 06:07:38;;;;;;;8.13;4.05;;;12.30;99.90;;;;;;4957584;29;20043;-65
2022/10/28 06:10:06;;;;;;;8.48;4.43;;;12.40;99.90;;;;;;4924891;29;20126;-66
2022/10/28 06:12:32;;;;;;;7.25;3.92;;;12.30;99.90;;;;;;4940300;29;20135;-65
2022/10/28 06:14:58;;;;;;;10.65;3.80;;;12.30;99.90;;;;;;4957893;29;20035;-65
2022/10/28 06:17:24;;;;;;;8.07;3.75;;;12.60;99.90;;;;;;4957785;29;20097;-66
2022/10/28 06:19:50;;;;;;;10.73;3.60;;;12.30;99.90;;;;;;4957347;29;20122;-65
2022/10/28 06:22:16;;;;;;;9.07;5.13;;;12.30;99.90;;;;;;4940485;29;20172;-65
2022/10/28 06:24:41;;;;;;;7.25;3.92;;;12.30;99.90;;;;;;4957632;29;20050;-65
2022/10/28 06:27:07;;;;;;;7.90;4.28;;;12.30;99.90;;;;;;4957214;29;20066;-66
2022/10/28 06:29:33;;;;;;;7.30;3.17;;;12.30;99.90;;;;;;4940422;29;20130;-65
2022/10/28 06:31:59;;;;;;;6.55;3.80;;;12.60;99.90;;;;;;4956994;28;20047;-65
2022/10/28 06:34:25;;;;;;;5.20;3.33;;;12.30;99.90;;;;;;4957187;28;20047;-65
2022/10/28 06:36:50;;;;;;;9.63;4.22;;;12.30;99.90;;;;;;4957042;29;20055;-65
2022/10/28 06:39:16;;;;;;;8.30;3.20;;;12.30;99.90;;;;;;4957389;29;20091;-65
2022/10/28 06:41:42;;;;;;;12.10;3.88;;;12.40;99.90;;;;;;4940181;29;20055;-66
2022/10/28 06:44:08;;;;;;;6.95;3.97;;;12.50;99.90;;;;;;4957081;29;20043;-66
2022/10/28 06:46:34;;;;;;;5.80;3.80;;;12.50;99.90;;;;;;4956869;29;20047;-65
2022/10/28 06:49:02;;;;;;;8.77;5.13;;;12.50;99.90;;;;;;4957152;29;20094;-66
2022/10/28 06:51:29;;;;;;;6.63;3.75;;;12.50;99.90;;;;;;4939686;29;20047;-66
2022/10/28 06:53:55;;;;;;;9.00;3.83;;;12.60;99.90;;;;;;4957102;29;20043;-66
2022/10/28 06:56:20;;;;;;;10.95;4.13;;;12.60;99.90;;;;;;4957119;29;20399;-65
2022/10/28 06:58:53;;;;;;;5.63;3.70;;;12.60;99.90;;;;;;4956996;29;20047;-65
2022/10/28 07:01:25;;;;;;;11.20;3.50;;;12.70;99.90;;;;;;4956498;29;20300;-66
2022/10/28 07:03:50;;;;;;;5.68;3.35;;;12.80;99.90;;;;;;4956550;29;20043;-66
2022/10/28 07:06:16;;;;;;;8.48;3.72;;;12.80;99.90;;;;;;4939775;29;20158;-66
2022/10/28 07:08:42;;;;;;;6.95;3.40;;;12.90;99.90;;;;;;4939667;29;20042;-67
2022/10/28 07:11:08;;;;;;;4.95;3.20;;;13.00;99.90;;;;;;4939773;29;20035;-66
2022/10/28 07:13:34;;;;;;;6.72;3.60;;;13.10;99.90;;;;;;4956414;29;20134;-66
2022/10/28 07:16:00;;;;;;;7.53;3.63;;;13.20;99.90;;;;;;4956697;29;20035;-66
2022/10/28 07:18:28;;;;;;;9.65;4.18;;;13.20;99.90;;;;;;4956391;29;20051;-66
2022/10/28 07:20:57;;;;;;;8.25;3.80;;;13.30;99.90;;;;;;4939201;29;20039;-66
2022/10/28 07:23:23;;;;;;;8.65;3.65;;;13.50;99.90;;;;;;4939205;29;20051;-66
2022/10/28 07:25:54;;;;;;;5.03;2.90;;;13.60;99.90;;;;;;4956580;29;20491;-66
2022/10/28 07:28:20;;;;;;;5.43;3.28;;;13.60;99.90;;;;;;4956466;29;20406;-66
2022/10/28 07:30:46;;;;;;;9.20;3.55;;;13.80;99.90;;;;;;4956118;29;20119;-66
2022/10/28 07:33:13;;;;;;;4.80;3.38;;;13.90;99.90;;;;;;4956099;29;20146;-66
2022/10/28 07:35:38;;;;;;;10.35;3.58;;;14.00;99.90;;;;;;4956026;29;20051;-66
2022/10/28 07:38:04;;;;;;;5.90;3.30;;;14.20;99.90;;;;;;4955983;29;20050;-66
2022/10/28 07:40:30;;;;;;;5.50;3.10;;;14.30;99.90;;;;;;4956292;29;20035;-66
2022/10/28 07:42:57;;;;;;;5.25;2.80;;;14.50;99.90;;;;;;4956184;29;20070;-66
2022/10/28 07:45:24;;;;;;;9.38;3.38;;;14.60;99.90;;;;;;4938368;29;20043;-66
2022/10/28 07:47:49;;;;;;;6.20;2.85;;;14.70;99.90;;;;;;4956055;29;20395;-66
2022/10/28 07:50:15;;;;;;;6.40;3.20;;;14.80;99.90;;;;;;4955861;29;20039;-66
2022/10/28 07:52:41;;;;;;;8.70;3.63;;;14.90;99.90;;;;;;4956038;29;20043;-66
2022/10/28 07:55:07;;;;;;;6.18;3.30;;;15.00;99.90;;;;;;4956000;29;20098;-66
2022/10/28 07:57:33;;;;;;;5.40;2.35;;;15.10;99.90;;;;;;4938483;29;20047;-66
2022/10/28 07:59:59;;;;;;;6.80;3.58;;;15.20;99.90;;;;;;4955617;29;20055;-66
2022/10/28 08:02:25;;;;;;;9.05;3.15;;;15.30;99.90;;;;;;4938903;29;20043;-66
2022/10/28 08:04:51;;;;;;;9.27;3.00;;;15.40;99.90;;;;;;4955924;29;20038;-66
2022/10/28 08:07:18;;;;;;;4.80;2.75;;;15.50;99.90;;;;;;4955709;29;20050;-66
2022/10/28 08:09:43;;;;;;;6.47;2.65;;;15.50;99.90;;;;;;4955687;29;20070;-65
2022/10/28 08:12:12;;;;;;;8.20;3.25;;;15.60;99.90;;;;;;4955531;29;20424;-66
2022/10/28 08:14:38;;;;;;;3.85;2.25;;;15.70;99.90;;;;;;4955477;29;20035;-66
2022/10/28 08:17:04;;;;;;;5.95;2.38;;;15.80;99.90;;;;;;4955652;29;20053;-66
2022/10/28 08:19:30;;;;;;;10.63;3.17;;;15.80;99.90;;;;;;4938621;29;20051;-66
2022/10/28 08:21:56;;;;;;;8.20;2.53;;;15.90;99.90;;;;;;4938052;29;20051;-66
2022/10/28 08:24:22;;;;;;;6.80;2.90;;;16.00;99.90;;;;;;4955420;29;20039;-66
2022/10/28 08:26:48;;;;;;;6.75;2.55;;;16.00;99.90;;;;;;4937952;29;20194;-66
2022/10/28 08:29:13;;;;;;;6.75;2.25;;;16.00;99.90;;;;;;4955565;29;20126;-66
2022/10/28 08:31:39;;;;;;;6.10;2.90;;;16.10;99.90;;;;;;4955021;29;20092;-66
2022/10/28 08:34:06;;;;;;;4.88;2.45;;;16.20;99.90;;;;;;4955478;29;20047;-66
2022/10/28 08:36:32;;;;;;;6.72;2.53;;;16.20;99.90;;;;;;4938222;29;20126;-66
2022/10/28 08:39:00;;;;;;;8.40;2.67;;;16.20;99.90;;;;;;4955431;29;20486;-66
2022/10/28 08:41:31;;;;;;;7.95;2.65;;;16.30;99.90;;;;;;4955395;29;20395;-66
2022/10/28 08:44:36;;;;;;;5.90;2.70;;;16.30;99.90;;;;;;4955305;29;20467;-66
2022/10/28 08:47:19;;;;;;;4.03;2.35;;;16.40;99.90;;;;;;4955032;29;20047;-66
2022/10/28 08:49:48;;;;;;;8.10;2.55;;;16.40;99.90;;;;;;4954930;29;20054;-66
2022/10/28 08:52:45;;;;;;;5.35;2.65;;;16.50;99.90;;;;;;4954949;29;20055;-66
2022/10/28 08:55:19;;;;;;;7.07;3.03;;;16.60;99.90;;;;;;4955285;29;20039;-66
2022/10/28 08:57:58;;;;;;;10.95;2.90;;;16.70;99.90;;;;;;4940903;29;20047;-66
2022/10/28 09:00:28;;;;;;;4.32;1.95;;;16.80;99.90;;;;;;4959122;29;20483;-66
2022/10/28 09:03:23;;;;;;;4.10;2.53;;;16.80;99.90;;;;;;4959121;29;20078;-66
2022/10/28 09:05:55;;;;;;;6.68;2.85;;;17.00;99.90;;;;;;4958991;29;20079;-66
2022/10/28 09:08:23;;;;;;;5.18;2.13;;;17.10;99.90;;;;;;4958939;29;20042;-67
2022/10/28 09:11:15;;;;;;;4.85;1.92;;;17.10;99.90;;;;;;4958973;29;20067;-66
2022/10/28 09:13:48;;;;;;;8.27;2.20;;;17.20;99.90;;;;;;4958669;29;20426;-67
2022/10/28 09:16:39;;;;;;;3.90;2.17;;;17.30;99.90;;;;;;4958584;29;20043;-67
2022/10/28 09:19:35;;;;;;;5.95;2.90;;;17.30;99.90;;;;;;4958783;29;20049;-67
2022/10/28 09:22:15;;;;;;;5.78;2.55;;;17.30;99.90;;;;;;4958771;29;20142;-66
2022/10/28 09:24:59;;;;;;;4.72;2.25;;;17.40;99.90;;;;;;4958738;29;20130;-67
2022/10/28 09:27:51;;;;;;;9.15;2.75;;;17.40;99.90;;;;;;4958610;29;20078;-66
2022/10/28 09:30:47;;;;;;;5.43;2.58;;;17.40;99.90;;;;;;4941119;29;20047;-66
2022/10/28 09:33:39;;;;;;;8.27;2.33;;;17.50;99.90;;;;;;4958072;28;20139;-66
2022/10/28 09:36:09;;;;;;;8.68;2.55;;;17.50;99.90;;;;;;4958440;29;20039;-67
2022/10/28 09:38:39;;;;;;;6.90;2.77;;;17.50;99.90;;;;;;4958387;29;20039;-66
2022/10/28 09:41:23;;;;;;;4.57;2.35;;;17.60;99.90;;;;;;4958055;29;20090;-66
2022/10/28 09:43:53;;;;;;;5.97;2.65;;;17.60;99.90;;;;;;4957995;29;20395;-67
2022/10/28 09:46:22;;;;;;;5.55;2.60;;;17.60;99.90;;;;;;4941127;29;20047;-66
2022/10/28 09:48:50;;;;;;;7.30;2.40;;;17.60;99.90;;;;;;4958184;29;20043;-66
2022/10/28 09:51:31;;;;;;;7.97;2.10;;;17.70;99.90;;;;;;4958252;29;20035;-66
2022/10/28 09:53:58;;;;;;;5.15;2.22;;;17.70;99.90;;;;;;4958128;29;20047;-66
2022/10/28 09:56:25;;;;;;;7.72;2.45;;;17.70;99.90;;;;;;4957804;29;20043;-67
2022/10/28 09:58:52;;;;;;;5.65;2.35;;;17.70;99.90;;;;;;4957996;29;20073;-66
2022/10/28 10:01:18;;;;;;;6.30;2.50;;;17.80;99.90;;;;;;4958127;29;20085;-67
2022/10/28 10:03:48;;;;;;;4.82;2.25;;;17.80;99.90;;;;;;4957671;29;20047;-66
2022/10/28 10:06:22;;;;;;;4.70;2.33;;;17.90;99.90;;;;;;4957912;29;20058;-66
2022/10/28 10:08:48;;;;;;;6.40;2.15;;;17.90;99.90;;;;;;4939834;29;20039;-66
2022/10/28 10:11:26;;;;;;;7.10;2.90;;;17.90;99.90;;;;;;4940838;29;20038;-67
2022/10/28 10:13:53;;;;;;;3.53;1.90;;;17.90;99.90;;;;;;4957572;29;20125;-66
2022/10/28 10:16:43;;;;;;;7.63;2.55;;;17.90;99.90;;;;;;4957425;29;20038;-66
2022/10/28 10:19:10;;;;;;;4.28;1.95;;;17.90;99.90;;;;;;4956964;29;20611;-66
2022/10/28 10:21:47;;;;;;;5.80;2.67;;;18.00;99.90;;;;;;4957418;29;20075;-68
2022/10/28 10:24:33;;;;;;;4.40;2.35;;;18.00;99.90;;;;;;4940464;29;20047;-66
2022/10/28 10:27:09;;;;;;;6.22;2.25;;;18.00;99.90;;;;;;4957496;29;20066;-67
2022/10/28 10:29:37;;;;;;;7.22;2.20;;;18.00;99.90;;;;;;4957540;29;20085;-67
2022/10/28 10:32:13;;;;;;;7.68;2.50;;;18.00;99.90;;;;;;4957233;29;20063;-67
2022/10/28 10:34:44;;;;;;;4.00;2.40;;;18.10;99.90;;;;;;4939949;29;20051;-66
2022/10/28 10:37:20;;;;;;;5.53;2.63;;;18.10;99.90;;;;;;4957355;29;20078;-67
2022/10/28 10:39:59;;;;;;;7.13;2.50;;;18.10;99.90;;;;;;4957312;29;20396;-67
2022/10/28 10:42:26;;;;;;;7.55;2.28;;;18.20;99.90;;;;;;4940054;29;20087;-67
2022/10/28 10:45:17;;;;;;;5.35;2.15;;;18.30;99.90;;;;;;4957285;29;20618;-66
2022/10/28 10:47:43;;;;;;;3.45;1.95;;;18.40;99.90;;;;;;4957149;29;20490;-67
2022/10/28 10:50:31;;;;;;;2.72;2.20;;;18.40;99.90;;;;;;4957187;29;20067;-67
2022/10/28 10:52:59;;;;;;;4.25;2.28;;;18.50;99.90;;;;;;4957404;29;20039;-67
2022/10/28 10:55:35;;;;;;;2.90;1.90;;;18.60;99.90;;;;;;4956811;29;20036;-67
2022/10/28 10:58:01;;;;;;;5.93;2.38;;;18.60;99.90;;;;;;4957032;29;20035;-66
2022/10/28 11:00:37;;;;;;;4.95;2.03;;;18.60;99.90;;;;;;4956719;29;20046;-67
2022/10/28 11:03:13;;;;;;;2.45;1.55;;;;;;;;;;4939474;29;20043;-67
2022/10/28 11:05:47;;;;;;;4.32;2.38;;;;;;;;;;4956638;29;20130;-67
2022/10/28 11:08:26;;;;;;;8.20;2.20;;;;;;;;;;4939561;29;20383;-67
2022/10/28 11:11:05;;;;;;;6.70;2.30;;;;;;;;;;4923453;29;20141;-67
2022/10/28 11:13:33;;;;;;;12.15;2.17;;;;;;;;;;4939666;29;20094;-67
2022/10/28 11:16:00;;;;;;;3.97;1.80;;;;;;;;;;4939222;29;20143;-67
2022/10/28 11:18:28;;;;;;;3.72;1.73;;;;;;;;;;4956662;29;20047;-67
2022/10/28 11:20:57;;;;;;;8.02;2.30;;;;;;;;;;4955642;28;20102;-67
2022/10/28 11:23:33;;;;;;;3.78;2.15;;;;;;;;;;4956557;29;20124;-68
2022/10/28 11:26:02;;;;;;;2.72;1.70;;;;;;;;;;4956548;29;20102;-68
2022/10/28 11:28:36;;;;;;;3.90;2.30;;;;;;;;;;4956459;29;20487;-67
2022/10/28 11:31:17;;;;;;;8.05;2.97;;;;;;;;;;4956461;29;20042;-67
2022/10/28 11:33:46;;;;;;;7.80;2.13;;;;;;;;;;4955914;29;20074;-67
2022/10/28 11:36:23;;;;;;;5.40;2.58;;;19.50;99.90;;;;;;4939127;29;20428;-67
2022/10/28 11:39:04;;;;;;;4.85;2.38;;;19.50;99.90;;;;;;4956309;29;20051;-67
2022/10/28 11:41:36;;;;;;;;;;;19.70;99.90;;;;;;4939453;29;20043;-67
2022/10/28 11:44:27;;;;;;;3.78;2.08;;;19.90;99.90;;;;;;4938689;29;19973;-67
2022/10/28 11:47:10;;;;;;;;;;;19.70;99.90;;;;;;4916731;29;20062;-67
2022/10/28 11:50:13;;;;;;;3.47;1.88;;;19.80;99.90;;;;;;4956144;29;19922;-67
2022/10/28 11:53:16;;;;;;;4.57;2.28;;;19.90;99.90;;;;;;4956056;29;20043;-66
2022/10/28 11:56:03;;;;;;;5.18;2.70;;;19.80;99.90;;;;;;4955953;29;20078;-67
2022/10/28 11:59:02;;;;;;;8.63;2.22;;;19.80;99.90;;;;;;4955946;29;20043;-67
2022/10/28 12:01:27;;;;;;;5.00;2.50;;;19.70;99.90;;;;;;4929848;29;20082;-67
2022/10/28 12:04:25;;;;;;;4.85;2.67;;;19.70;99.90;;;;;;4938690;29;20043;-66
2022/10/28 12:07:03;;;;;;;6.65;2.22;;;19.80;99.90;;;;;;4955525;29;20423;-67
2022/10/28 12:09:41;;;;;;;8.73;2.80;;;19.90;99.90;;;;;;4938649;29;20111;-67
2022/10/28 12:12:11;;;;;;;5.93;2.80;;;19.90;99.90;;;;;;4938541;29;20047;-68
2022/10/28 12:14:59;;;;;;;4.65;2.75;;;19.90;99.90;;;;;;4955701;29;20043;-68
2022/10/28 12:17:39;;;;;;;4.88;2.13;;;19.90;99.90;;;;;;4938178;29;20054;-66
2022/10/28 12:20:29;;;;;;;4.65;2.10;;;20.00;99.90;;;;;;4955605;29;20035;-66
2022/10/28 12:22:59;;;;;;;7.18;2.95;;;20.00;99.90;;;;;;4918245;29;20055;-66
2022/10/28 12:25:27;;;;;;;4.47;2.40;;;20.00;99.90;;;;;;4955594;29;20049;-66
2022/10/28 12:27:59;;;;;;;8.00;2.53;;;20.10;99.90;;;;;;4938425;29;20065;-66
2022/10/28 12:30:28;;;;;;;6.60;2.28;;;20.00;99.90;;;;;;4938424;29;20031;-66
2022/10/28 12:33:10;;;;;;;5.30;2.10;;;20.00;99.90;;;;;;4954972;29;20122;-66
2022/10/28 12:35:45;;;;;;;3.53;2.00;;;20.00;99.90;;;;;;4955179;29;20042;-66
2022/10/28 12:38:40;;;;;;;6.00;2.60;;;20.00;99.90;;;;;;4923187;29;20051;-66
2022/10/28 12:41:22;;;;;;;5.25;2.47;;;20.00;99.90;;;;;;4937976;29;20094;-66
2022/10/28 12:44:13;;;;;;;11.30;2.47;;;20.00;99.90;;;;;;4955348;29;20094;-66
2022/10/28 12:46:47;;;;;;;3.20;2.38;;;20.00;99.90;;;;;;4955102;29;20063;-67
2022/10/28 12:49:24;;;;;;;4.97;2.38;;;20.00;99.90;;;;;;4955069;29;20046;-66
2022/10/28 12:51:50;;;;;;;6.65;2.83;;;20.00;99.90;;;;;;4955268;29;20488;-66
2022/10/28 12:54:20;;;;;;;6.57;2.10;;;20.00;99.90;;;;;;4955314;29;20036;-67
2022/10/28 12:57:02;;;;;;;6.53;2.30;;;20.00;99.90;;;;;;4955334;29;20567;-67
2022/10/28 12:59:36;;;;;;;4.80;2.05;;;20.00;99.90;;;;;;4955273;29;20478;-67
2022/10/28 13:02:08;;;;;;;5.18;2.15;;;20.00;99.90;;;;;;4955007;29;20043;-67
2022/10/28 13:04:36;;;;;;;6.28;2.00;;;20.00;99.90;;;;;;4938009;29;20040;-67
2022/10/28 13:07:16;;;;;;;10.10;2.65;;;19.90;99.90;;;;;;4955145;29;20040;-67
2022/10/28 13:10:16;;;;;;;4.95;2.45;;;19.90;99.90;;;;;;4937740;29;20043;-67
2022/10/28 13:13:08;;;;;;;7.75;2.08;;;19.90;99.90;;;;;;4954872;29;20035;-67
2022/10/28 13:15:34;;;;;;;5.13;2.20;;;19.90;99.90;;;;;;4937899;29;20127;-67